Time;durP1;ratioP1;P1;durP2;ratioP2;P2;SDS_P1;SDS_P2;PMS_P1;PMS_P2;Temp;Humidity;BMP_temperature;BMP_pressure;BME280_temperature;BME280_humidity;BME280_pressure;Samples;Min_cycle;Max_cycle;Signal;HPM_P1;HPM_P2
2023/08/17 00:02:11;;;;;;;;;7.00;6.00;;;;;25.55;40.80;101376.83;109985;1250;20893;-82
2023/08/17 00:04:37;;;;;;;;;10.00;10.00;;;;;25.59;40.57;101371.73;109984;1266;18340;-82
2023/08/17 00:07:03;;;;;;;;;8.00;7.00;;;;;25.59;40.72;101370.59;109995;1253;20374;-80
2023/08/17 00:09:29;;;;;;;;;6.00;6.00;;;;;25.57;40.62;101369.89;109977;1250;20851;-82
2023/08/17 00:11:55;;;;;;;;;7.00;7.00;;;;;25.51;40.82;101375.48;110042;1251;22172;-81
2023/08/17 00:14:22;;;;;;;;;6.00;6.00;;;;;25.51;40.70;101375.05;110056;1260;19987;-80
2023/08/17 00:16:48;;;;;;;;;5.00;5.00;;;;;25.52;40.79;101377.35;110061;1251;20986;-79
2023/08/17 00:19:14;;;;;;;;;5.00;5.00;;;;;25.52;40.79;101376.96;110088;1266;22962;-81
2023/08/17 00:21:40;;;;;;;;;5.00;5.00;;;;;25.50;40.95;101377.96;110081;1266;22831;-81
2023/08/17 00:24:06;;;;;;;;;7.00;6.00;;;;;25.48;41.08;101372.60;110095;1260;20878;-81
2023/08/17 00:26:32;;;;;;;;;11.00;10.33;;;;;25.52;41.05;101373.23;110054;1251;22648;-81
2023/08/17 00:28:58;;;;;;;;;6.00;6.00;;;;;25.50;40.94;101371.83;110131;1266;19999;-82
2023/08/17 00:31:24;;;;;;;;;10.00;7.00;;;;;25.50;41.10;101372.38;110084;1266;19339;-80
2023/08/17 00:33:50;;;;;;;;;8.00;8.00;;;;;25.48;41.05;101372.33;109985;1250;19577;-80
2023/08/17 00:36:16;;;;;;;;;7.00;6.00;;;;;25.50;41.00;101367.70;109963;1265;18665;-80
2023/08/17 00:38:42;;;;;;;;;6.33;6.33;;;;;25.51;41.05;101362.04;109973;1266;19483;-82
2023/08/17 00:41:08;;;;;;;;;7.00;7.00;;;;;25.44;41.19;101358.36;109979;1266;18313;-81
2023/08/17 00:43:34;;;;;;;;;6.00;6.00;;;;;25.48;41.11;101356.41;110014;1265;18638;-81
2023/08/17 00:46:00;;;;;;;;;6.00;6.00;;;;;25.48;41.19;101353.30;110022;1251;20785;-81
2023/08/17 00:48:26;;;;;;;;;;;;;;;25.47;41.23;101352.20;109975;1265;19289;-82
2023/08/17 00:50:52;;;;;;;;;11.50;10.00;;;;;25.50;41.33;101350.52;109957;1265;19658;-79
2023/08/17 00:53:18;;;;;;;;;9.00;8.00;;;;;25.46;41.39;101349.52;109978;1250;20874;-80
2023/08/17 00:55:44;;;;;;;;;10.00;8.00;;;;;25.40;41.43;101346.95;109986;1250;19946;-80
2023/08/17 00:58:10;;;;;;;;;7.00;7.00;;;;;25.43;41.50;101346.48;109973;1260;20016;-81
2023/08/17 01:00:36;;;;;;;;;7.00;7.00;;;;;25.44;41.54;101345.38;110022;1250;21980;-80
2023/08/17 01:03:02;;;;;;;;;15.00;12.50;;;;;25.43;41.53;101346.27;110016;1250;19795;-81
2023/08/17 01:05:28;;;;;;;;;12.00;11.00;;;;;25.44;41.48;101346.85;109978;1266;18826;-81
2023/08/17 01:07:54;;;;;;;;;10.00;10.00;;;;;25.40;41.69;101337.84;109992;1250;20691;-82
2023/08/17 01:10:20;;;;;;;;;10.00;8.00;;;;;25.41;41.68;101336.73;109965;1265;20903;-82
2023/08/17 01:12:46;;;;;;;;;7.00;7.00;;;;;25.39;41.78;101341.19;109950;1250;21548;-82
2023/08/17 01:15:12;;;;;;;;;6.00;6.00;;;;;25.42;41.83;101347.20;109986;1266;19501;-83
2023/08/17 01:17:39;;;;;;;;;6.67;6.67;;;;;25.44;41.87;101350.09;109994;1266;18404;-82
2023/08/17 01:20:05;;;;;;;;;6.00;6.00;;;;;25.43;41.89;101347.79;109971;1250;22690;-81
2023/08/17 01:22:32;;;;;;;;;5.00;5.00;;;;;25.40;42.08;101338.33;109973;1250;20805;-81
2023/08/17 01:24:58;;;;;;;;;3.00;3.00;;;;;25.38;42.11;101328.48;109974;1250;22891;-81
2023/08/17 01:27:24;;;;;;;;;5.00;5.00;;;;;25.41;42.17;101330.64;109981;1266;22379;-80
2023/08/17 01:29:50;;;;;;;;;4.00;4.00;;;;;25.44;41.98;101331.06;110026;1266;19385;-80
2023/08/17 01:32:16;;;;;;;;;6.00;6.00;;;;;25.42;42.02;101328.60;109960;1250;19784;-79
2023/08/17 01:34:42;;;;;;;;;6.00;5.67;;;;;25.44;42.23;101330.12;110022;1250;21618;-81
2023/08/17 01:37:08;;;;;;;;;5.00;5.00;;;;;25.44;42.17;101344.00;109995;1266;21581;-82
2023/08/17 01:39:34;;;;;;;;;6.33;6.33;;;;;25.39;42.23;101353.27;109989;1266;22750;-80
2023/08/17 01:42:01;;;;;;;;;7.00;7.00;;;;;25.40;42.28;101353.80;109987;1250;20986;-82
2023/08/17 01:44:27;;;;;;;;;15.00;15.00;;;;;25.39;42.16;101352.48;110015;1250;20775;-81
2023/08/17 01:46:53;;;;;;;;;11.50;10.50;;;;;25.36;42.55;101355.86;109993;1250;19671;-81
2023/08/17 01:49:19;;;;;;;;;7.50;7.50;;;;;25.36;42.46;101357.90;109973;1266;22897;-81
2023/08/17 01:51:45;;;;;;;;;8.00;8.00;;;;;25.36;42.56;101361.46;109991;1251;19480;-81
2023/08/17 01:54:11;;;;;;;;;11.00;10.00;;;;;25.32;42.87;101363.14;109986;1266;18569;-80
2023/08/17 01:56:37;;;;;;;;;6.50;6.50;;;;;25.35;42.87;101366.84;109984;1266;18756;-82
2023/08/17 01:59:03;;;;;;;;;9.00;7.00;;;;;25.33;43.47;101360.11;109982;1251;21977;-81
2023/08/17 02:01:29;;;;;;;;;6.50;6.00;;;;;25.37;43.71;101339.40;109973;1250;19870;-80
2023/08/17 02:03:55;;;;;;;;;3.00;3.00;;;;;25.35;44.37;101326.36;110015;1250;18706;-80
2023/08/17 02:06:21;;;;;;;;;5.00;5.00;;;;;25.35;44.83;101318.63;109970;1260;19444;-81
2023/08/17 02:08:47;;;;;;;;;5.00;5.00;;;;;25.37;45.36;101309.45;109974;1250;19669;-79
2023/08/17 02:11:13;;;;;;;;;6.00;5.00;;;;;25.36;45.75;101305.67;110007;1250;19948;-81
2023/08/17 02:13:39;;;;;;;;;7.00;5.00;;;;;25.35;46.27;101301.45;110001;1250;20669;-79
2023/08/17 02:16:06;;;;;;;;;3.00;3.00;;;;;25.34;46.76;101296.15;109981;1250;21856;-81
2023/08/17 02:18:33;;;;;;;;;5.00;5.00;;;;;25.33;47.08;101289.14;109995;1250;20180;-81
2023/08/17 02:20:59;;;;;;;;;3.00;3.00;;;;;25.33;47.29;101291.55;110032;1250;21913;-80
2023/08/17 02:23:25;;;;;;;;;5.00;5.00;;;;;25.33;47.42;101288.37;109994;1266;19716;-80
2023/08/17 02:25:51;;;;;;;;;5.00;5.00;;;;;25.32;47.46;101285.47;109986;1250;21451;-81
2023/08/17 02:28:17;;;;;;;;;6.00;4.00;;;;;25.29;47.65;101281.60;110032;1250;21976;-80
2023/08/17 02:30:43;;;;;;;;;3.00;3.00;;;;;25.27;47.51;101282.88;110036;1251;22335;-79
2023/08/17 02:33:09;;;;;;;;;3.00;3.00;;;;;25.27;47.86;101278.77;110039;1252;20181;-80
2023/08/17 02:35:35;;;;;;;;;5.00;5.00;;;;;25.25;47.80;101282.25;110037;1251;20905;-81
2023/08/17 02:38:01;;;;;;;;;5.00;5.00;;;;;25.25;48.05;101288.06;109983;1265;18276;-82
2023/08/17 02:40:27;;;;;;;;;6.00;5.00;;;;;25.24;48.14;101290.86;110007;1265;18603;-82
2023/08/17 02:42:53;;;;;;;;;5.33;5.33;;;;;25.20;48.21;101293.37;109996;1251;20829;-81
2023/08/17 02:45:19;;;;;;;;;5.00;5.00;;;;;25.16;48.45;101295.75;109958;1266;18509;-81
2023/08/17 02:47:45;;;;;;;;;3.00;3.00;;;;;25.13;48.42;101294.35;109986;1250;20154;-80
2023/08/17 02:50:11;;;;;;;;;5.50;5.50;;;;;25.10;48.68;101300.69;110005;1265;19437;-81
2023/08/17 02:52:37;;;;;;;;;5.00;5.00;;;;;25.06;48.80;101307.13;109994;1259;18478;-79
2023/08/17 02:55:03;;;;;;;;;5.00;5.00;;;;;25.07;49.00;101314.35;109997;1250;18654;-79
2023/08/17 02:57:29;;;;;;;;;3.00;3.00;;;;;25.05;48.91;101310.42;109993;1266;19241;-79
2023/08/17 02:59:55;;;;;;;;;5.00;5.00;;;;;25.05;49.07;101309.77;110001;1265;18537;-81
2023/08/17 03:02:21;;;;;;;;;5.00;3.67;;;;;25.01;49.22;101314.56;109979;1250;20032;-83
2023/08/17 03:04:47;;;;;;;;;5.00;5.00;;;;;25.02;49.23;101318.84;109996;1266;19473;-82
2023/08/17 03:07:13;;;;;;;;;5.50;5.00;;;;;25.02;49.24;101320.16;110007;1251;19629;-83
2023/08/17 03:09:39;;;;;;;;;5.00;3.00;;;;;25.00;49.40;101326.85;109967;1265;18616;-80
2023/08/17 03:12:05;;;;;;;;;3.00;3.00;;;;;24.98;49.42;101328.17;110019;1250;20855;-80
2023/08/17 03:14:31;;;;;;;;;3.00;3.00;;;;;25.00;49.38;101329.48;110049;1251;19748;-81
2023/08/17 03:16:57;;;;;;;;;6.00;6.00;;;;;25.00;49.26;101325.92;109995;1251;20055;-80
2023/08/17 03:19:24;;;;;;;;;6.67;5.33;;;;;24.98;49.40;101330.21;110020;1265;20760;-81
2023/08/17 03:21:50;;;;;;;;;6.00;5.50;;;;;24.99;49.39;101342.48;110023;1266;18422;-85
2023/08/17 03:24:16;;;;;;;;;5.50;5.50;;;;;24.98;49.37;101338.65;110011;1266;20059;-82
2023/08/17 03:26:42;;;;;;;;;3.00;3.00;;;;;24.99;49.21;101331.19;110042;1251;21985;-80
2023/08/17 03:29:09;;;;;;;;;5.00;5.00;;;;;24.99;48.93;101327.69;110006;1251;20982;-79
2023/08/17 03:31:35;;;;;;;;;5.00;5.00;;;;;24.98;48.95;101333.50;110006;1265;18790;-79
2023/08/17 03:34:01;;;;;;;;;5.00;3.00;;;;;24.93;49.18;101336.24;109989;1251;19410;-79
2023/08/17 03:36:27;;;;;;;;;5.50;5.50;;;;;24.98;48.86;101335.04;110044;1251;19943;-80
2023/08/17 03:38:53;;;;;;;;;5.00;5.00;;;;;24.97;48.92;101343.63;110012;1260;18624;-80
2023/08/17 03:41:20;;;;;;;;;12.00;10.50;;;;;24.97;48.78;101348.08;110035;1251;20683;-79
2023/08/17 03:43:46;;;;;;;;;12.00;12.00;;;;;24.96;48.47;101345.77;109985;1266;18887;-78
2023/08/17 03:46:12;;;;;;;;;11.00;10.50;;;;;24.90;48.79;101340.05;109990;1250;20129;-79
2023/08/17 03:48:38;;;;;;;;;10.50;10.00;;;;;24.92;48.84;101345.67;109989;1250;20775;-81
2023/08/17 03:51:04;;;;;;;;;7.00;7.00;;;;;24.91;48.81;101344.98;109993;1265;18708;-82
2023/08/17 03:53:30;;;;;;;;;9.00;7.50;;;;;24.91;48.81;101344.15;109971;1266;22827;-80
2023/08/17 03:55:56;;;;;;;;;6.00;6.00;;;;;24.94;48.57;101345.40;109983;1251;22231;-80
2023/08/17 03:58:22;;;;;;;;;6.00;5.00;;;;;24.95;48.59;101349.55;110001;1251;19446;-81
2023/08/17 04:00:48;;;;;;;;;8.67;8.67;;;;;24.93;48.42;101352.23;110008;1250;20070;-81
2023/08/17 04:03:14;;;;;;;;;8.00;7.00;;;;;24.93;48.28;101356.80;109988;1250;20719;-82
2023/08/17 04:05:40;;;;;;;;;6.00;6.00;;;;;24.95;48.06;101357.50;109990;1266;18527;-82
2023/08/17 04:08:07;;;;;;;;;6.50;6.00;;;;;24.90;48.24;101357.20;109977;1260;19992;-80
2023/08/17 04:10:33;;;;;;;;;5.00;5.00;;;;;24.88;48.25;101354.64;109983;1260;19236;-81
2023/08/17 04:12:59;;;;;;;;;6.50;6.50;;;;;24.87;48.53;101359.47;109994;1251;19622;-82
2023/08/17 04:15:25;;;;;;;;;7.00;7.00;;;;;24.89;48.68;101355.06;110021;1250;18676;-82
2023/08/17 04:17:51;;;;;;;;;8.00;6.00;;;;;24.90;48.43;101355.55;110034;1250;20915;-83
2023/08/17 04:20:18;;;;;;;;;5.00;5.00;;;;;24.89;48.45;101356.55;110027;1251;19591;-83
2023/08/17 04:22:44;;;;;;;;;6.00;6.00;;;;;24.89;48.64;101352.55;110036;1265;19906;-81
2023/08/17 04:25:10;;;;;;;;;7.00;7.00;;;;;24.87;48.67;101345.48;110005;1266;19434;-81
2023/08/17 04:27:36;;;;;;;;;10.00;7.50;;;;;24.83;48.92;101339.10;109971;1250;21586;-80
2023/08/17 04:30:02;;;;;;;;;8.50;8.50;;;;;24.83;48.88;101337.19;109972;1251;20030;-81
2023/08/17 04:32:28;;;;;;;;;10.00;9.00;;;;;24.85;49.16;101343.69;109995;1266;19610;-80
2023/08/17 04:34:54;;;;;;;;;;;;;;;24.87;49.12;101355.79;110014;1251;20786;-80
2023/08/17 04:37:20;;;;;;;;;8.00;8.00;;;;;24.87;49.61;101377.01;110014;1251;22147;-81
2023/08/17 04:39:48;;;;;;;;;11.00;10.00;;;;;24.90;49.47;101384.66;109980;1266;20729;-81
2023/08/17 04:42:14;;;;;;;;;10.00;10.00;;;;;24.85;49.77;101389.02;109951;1266;22553;-81
2023/08/17 04:44:40;;;;;;;;;10.00;10.00;;;;;24.87;50.10;101386.92;110014;1265;18891;-81
2023/08/17 04:47:06;;;;;;;;;7.00;7.00;;;;;24.88;49.95;101396.99;110041;1260;20673;-80
2023/08/17 04:49:32;;;;;;;;;7.00;7.00;;;;;24.88;50.20;101400.23;110021;1251;20131;-80
2023/08/17 04:51:58;;;;;;;;;7.00;7.00;;;;;24.86;50.08;101400.30;110030;1266;19971;-80
2023/08/17 04:54:24;;;;;;;;;7.50;6.00;;;;;24.86;49.94;101401.62;110041;1250;20727;-81
2023/08/17 04:56:50;;;;;;;;;5.00;5.00;;;;;24.82;50.03;101400.10;109967;1266;18679;-80
2023/08/17 04:59:16;;;;;;;;;9.00;6.00;;;;;24.80;50.06;101397.65;109962;1251;20191;-83
2023/08/17 05:01:42;;;;;;;;;6.50;6.00;;;;;24.81;49.79;101406.52;109994;1265;19459;-84
2023/08/17 05:04:08;;;;;;;;;5.67;5.00;;;;;24.91;49.37;101415.95;109989;1250;19666;-80
2023/08/17 05:06:34;;;;;;;;;6.00;5.00;;;;;24.93;49.43;101416.32;110026;1251;20019;-81
2023/08/17 05:09:00;;;;;;;;;4.33;4.33;;;;;24.91;49.27;101418.41;110004;1250;22706;-80
2023/08/17 05:11:26;;;;;;;;;6.00;5.50;;;;;24.94;49.09;101406.45;109994;1266;21578;-80
2023/08/17 05:13:52;;;;;;;;;5.00;5.00;;;;;24.93;49.14;101402.29;109994;1265;20093;-79
2023/08/17 05:16:19;;;;;;;;;6.00;5.00;;;;;24.98;48.75;101399.11;110002;1251;20641;-80
2023/08/17 05:18:45;;;;;;;;;5.00;5.00;;;;;25.00;48.46;101399.38;109989;1266;18236;-80
2023/08/17 05:21:11;;;;;;;;;5.00;5.00;;;;;25.00;48.75;101399.05;110026;1266;18622;-79
2023/08/17 05:23:37;;;;;;;;;3.00;3.00;;;;;25.01;48.50;101394.59;110037;1251;20624;-79
2023/08/17 05:26:03;;;;;;;;;7.00;6.00;;;;;25.01;48.72;101395.14;110047;1250;19734;-82
2023/08/17 05:28:29;;;;;;;;;6.00;6.00;;;;;24.96;48.70;101398.72;110022;1251;20013;-80
2023/08/17 05:30:55;;;;;;;;;7.00;6.33;;;;;24.95;49.07;101406.89;109978;1250;19485;-77
2023/08/17 05:33:21;;;;;;;;;78.00;55.00;;;;;24.96;49.53;101400.33;109970;1260;18219;-82
2023/08/17 05:35:47;;;;;;;;;239.00;185.00;;;;;24.89;49.50;101401.21;109991;1259;18733;-83
2023/08/17 05:38:13;;;;;;;;;218.00;171.00;;;;;24.94;49.58;101395.89;110021;1265;20955;-83
2023/08/17 05:40:39;;;;;;;;;178.00;138.00;;;;;25.01;49.73;101396.24;110029;1260;20361;-79
2023/08/17 05:43:05;;;;;;;;;131.00;99.00;;;;;25.06;49.74;101394.02;110010;1260;20307;-79
2023/08/17 05:45:31;;;;;;;;;83.50;59.50;;;;;25.05;49.75;101400.50;109953;1260;22129;-84
2023/08/17 05:47:57;;;;;;;;;73.00;52.00;;;;;25.01;50.06;101407.32;109927;1265;21764;-81
2023/08/17 05:50:23;;;;;;;;;54.50;43.00;;;;;25.04;49.89;101407.41;109996;1265;19935;-81
2023/08/17 05:52:49;;;;;;;;;46.00;38.00;;;;;25.02;50.38;101410.16;109998;1266;19387;-85
2023/08/17 05:55:15;;;;;;;;;29.00;27.00;;;;;25.01;50.56;101410.39;110001;1265;18808;-78
2023/08/17 05:57:41;;;;;;;;;19.00;17.00;;;;;25.05;50.48;101416.40;110003;1250;21418;-80
2023/08/17 06:00:08;;;;;;;;;23.00;21.00;;;;;25.04;50.78;101422.54;110015;1251;20725;-78
2023/08/17 06:02:34;;;;;;;;;26.50;24.50;;;;;25.06;50.80;101423.52;109963;1250;22843;-80
2023/08/17 06:05:00;;;;;;;;;21.00;17.00;;;;;25.05;50.71;101424.30;110029;1251;20332;-79
2023/08/17 06:07:27;;;;;;;;;14.00;12.00;;;;;25.06;50.73;101430.65;110022;1265;19503;-78
2023/08/17 06:09:53;;;;;;;;;12.00;12.00;;;;;25.11;50.53;101429.30;110016;1258;20074;-77
2023/08/17 06:12:19;;;;;;;;;12.00;11.00;;;;;25.11;50.46;101430.90;109979;1250;20107;-79
2023/08/17 06:14:45;;;;;;;;;10.33;8.00;;;;;25.09;50.48;101434.09;109969;1251;20726;-81
2023/08/17 06:17:11;;;;;;;;;11.00;10.00;;;;;25.04;50.91;101430.27;109990;1251;22630;-78
2023/08/17 06:19:37;;;;;;;;;8.00;7.00;;;;;25.08;51.09;101430.86;110002;1265;18809;-82
2023/08/17 06:22:03;;;;;;;;;8.00;8.00;;;;;25.03;51.08;101435.81;109980;1251;20772;-79
2023/08/17 06:24:29;;;;;;;;;11.00;10.00;;;;;25.00;51.16;101439.56;110049;1265;18317;-79
2023/08/17 06:26:55;;;;;;;;;10.00;10.00;;;;;25.02;51.48;101444.33;110026;1266;18649;-78
2023/08/17 06:29:21;;;;;;;;;8.00;7.00;;;;;25.04;51.38;101441.62;110006;1251;21121;-78
2023/08/17 06:31:47;;;;;;;;;7.00;7.00;;;;;25.06;51.35;101436.45;110022;1266;20179;-80
2023/08/17 06:34:13;;;;;;;;;6.00;6.00;;;;;24.90;51.79;101431.86;110020;1251;20165;-79
2023/08/17 06:36:39;;;;;;;;;9.00;7.00;;;;;24.86;51.75;101429.02;109963;1265;19434;-78
2023/08/17 06:39:05;;;;;;;;;6.00;6.00;;;;;24.92;51.71;101436.61;110009;1260;19531;-79
2023/08/17 06:41:31;;;;;;;;;6.00;6.00;;;;;24.96;51.62;101434.80;109968;1251;21630;-79
2023/08/17 06:43:57;;;;;;;;;7.00;6.00;;;;;24.94;51.54;101429.59;110005;1265;19723;-78
2023/08/17 06:46:24;;;;;;;;;6.00;6.00;;;;;24.67;52.39;101424.22;110002;1266;22847;-79
2023/08/17 06:48:50;;;;;;;;;8.33;7.00;;;;;24.68;52.27;101422.46;110014;1266;22473;-79
2023/08/17 06:51:16;;;;;;;;;7.00;7.00;;;;;24.78;52.06;101419.25;109945;1266;19314;-78
2023/08/17 06:53:42;;;;;;;;;7.00;7.00;;;;;24.66;52.41;101423.30;109951;1266;18336;-78
2023/08/17 06:56:08;;;;;;;;;7.00;7.00;;;;;24.78;51.97;101420.52;110007;1251;20052;-79
2023/08/17 06:58:34;;;;;;;;;7.00;6.50;;;;;24.90;51.52;101407.62;110069;1251;20791;-78
2023/08/17 07:01:00;;;;;;;;;6.50;6.50;;;;;24.95;51.19;101408.43;110006;1265;18290;-80
2023/08/17 07:03:26;;;;;;;;;8.00;8.00;;;;;24.91;51.22;101410.36;109984;1266;18575;-79
2023/08/17 07:05:53;;;;;;;;;8.00;7.00;;;;;24.87;51.40;101410.60;109978;1250;19659;-80
2023/08/17 07:08:19;;;;;;;;;6.00;6.00;;;;;24.98;51.14;101412.33;109995;1266;20389;-77
2023/08/17 07:10:45;;;;;;;;;7.00;7.00;;;;;24.83;51.83;101414.56;109981;1266;18783;-78
2023/08/17 07:13:11;;;;;;;;;6.00;6.00;;;;;24.92;51.45;101408.38;110035;1266;22043;-78
2023/08/17 07:15:37;;;;;;;;;7.00;7.00;;;;;24.92;51.33;101408.23;110005;1251;21697;-77
2023/08/17 07:18:03;;;;;;;;;7.00;7.00;;;;;24.86;51.67;101408.30;109974;1251;20004;-79
2023/08/17 07:20:29;;;;;;;;;8.33;8.00;;;;;24.88;51.55;101401.98;109957;1266;22316;-78
2023/08/17 07:22:55;;;;;;;;;6.00;5.00;;;;;24.90;51.41;101396.73;109991;1260;22187;-79
2023/08/17 07:25:21;;;;;;;;;6.00;6.00;;;;;24.98;51.37;101393.67;109973;1265;18819;-76
2023/08/17 07:27:47;;;;;;;;;6.00;6.00;;;;;25.08;51.02;101394.34;110042;1266;21909;-75
2023/08/17 07:30:13;;;;;;;;;9.00;8.00;;;;;25.04;52.35;101399.52;109899;1265;197682;-80
2023/08/17 07:32:39;;;;;;;;;6.00;6.00;;;;;24.89;52.65;101402.75;110063;1265;18609;-80
2023/08/17 07:35:05;;;;;;;;;6.00;6.00;;;;;25.00;52.34;101403.71;110058;1266;20766;-79
2023/08/17 07:37:33;;;;;;;;;10.00;7.00;;;;;25.09;52.05;101413.24;110026;1253;19758;-78
2023/08/17 07:39:59;;;;;;;;;7.00;7.00;;;;;25.09;52.06;101420.27;110006;1266;18737;-79
2023/08/17 07:42:25;;;;;;;;;8.00;7.50;;;;;25.09;52.01;101421.04;109994;1251;20794;-80
2023/08/17 07:44:51;;;;;;;;;7.50;6.00;;;;;25.15;51.84;101425.72;110008;1251;19606;-79
2023/08/17 07:47:17;;;;;;;;;6.00;6.00;;;;;25.24;51.47;101424.84;110013;1266;18710;-77
2023/08/17 07:49:43;;;;;;;;;5.00;5.00;;;;;25.30;51.33;101422.33;110016;1266;21550;-77
2023/08/17 07:52:09;;;;;;;;;6.00;6.00;;;;;25.31;51.45;101411.84;109979;1259;19644;-79
2023/08/17 07:54:35;;;;;;;;;7.00;6.00;;;;;25.25;51.66;101409.20;110055;1266;18786;-77
2023/08/17 07:57:03;;;;;;;;;5.00;5.00;;;;;25.33;51.12;101411.61;110044;1251;22114;-78
2023/08/17 07:59:29;;;;;;;;;8.00;7.00;;;;;25.41;50.98;101419.17;110057;1266;19578;-78
2023/08/17 08:01:55;;;;;;;;;6.00;5.50;;;;;25.47;50.64;101422.15;110031;1251;21638;-76
2023/08/17 08:04:21;;;;;;;;;6.00;6.00;;;;;25.56;50.62;101415.89;110038;1265;22203;-77
2023/08/17 08:06:47;;;;;;;;;6.00;6.00;;;;;25.64;50.60;101410.34;109986;1259;22075;-78
2023/08/17 08:09:13;;;;;;;;;5.00;5.00;;;;;25.69;50.15;101414.33;109996;1260;18643;-77
2023/08/17 08:11:39;;;;;;;;;5.00;5.00;;;;;25.66;50.07;101415.33;109982;1251;20902;-77
2023/08/17 08:14:05;;;;;;;;;5.50;5.50;;;;;25.66;50.20;101409.63;109994;1265;18319;-76
2023/08/17 08:16:31;;;;;;;;;6.00;6.00;;;;;25.57;50.03;101407.42;109971;1266;19870;-77
2023/08/17 08:18:57;;;;;;;;;7.00;6.00;;;;;25.58;50.09;101408.24;110018;1266;19784;-77
2023/08/17 08:21:23;;;;;;;;;6.00;6.00;;;;;25.60;49.76;101404.48;110020;1251;19839;-76
2023/08/17 08:23:49;;;;;;;;;6.67;6.67;;;;;25.70;49.68;101395.09;110062;1251;20185;-77
2023/08/17 08:26:15;;;;;;;;;6.00;6.00;;;;;25.73;49.65;101401.67;109998;1251;20806;-77
2023/08/17 08:28:41;;;;;;;;;8.00;7.00;;;;;25.73;49.30;101402.87;110040;1266;18439;-78
2023/08/17 08:31:07;;;;;;;;;8.00;7.00;;;;;25.70;49.78;101402.25;110053;1265;20076;-78
2023/08/17 08:33:33;;;;;;;;;8.00;7.00;;;;;25.77;49.40;101403.33;110031;1266;20840;-79
2023/08/17 08:36:00;;;;;;;;;5.00;5.00;;;;;25.77;49.29;101413.48;109965;1266;18532;-76
2023/08/17 08:38:27;;;;;;;;;7.00;7.00;;;;;25.79;49.33;101414.30;109978;1266;18797;-76
2023/08/17 08:40:55;;;;;;;;;7.00;7.00;;;;;25.83;49.07;101405.37;109992;1266;19567;-75
2023/08/17 08:43:22;;;;;;;;;6.50;6.50;;;;;25.84;49.30;101400.09;109982;1266;18389;-76
2023/08/17 08:45:49;;;;;;;;;8.00;7.00;;;;;25.94;48.86;101393.77;109986;1266;18639;-76
2023/08/17 08:48:17;;;;;;;;;9.33;8.00;;;;;25.98;49.07;101385.56;109970;1266;19364;-76
2023/08/17 08:50:45;;;;;;;;;6.00;6.00;;;;;26.01;49.23;101387.13;110027;1266;19528;-76
2023/08/17 08:53:11;;;;;;;;;9.00;8.00;;;;;26.08;49.09;101380.38;110021;1266;20190;-76
2023/08/17 08:55:38;;;;;;;;;7.00;7.00;;;;;26.08;49.11;101368.63;109942;1267;22232;-77
2023/08/17 08:58:04;;;;;;;;;7.50;7.50;;;;;26.03;49.00;101366.65;110050;1250;19485;-76
2023/08/17 09:00:31;;;;;;;;;7.00;7.00;;;;;26.06;49.25;101361.06;110022;1265;22698;-77
2023/08/17 09:02:57;;;;;;;;;9.00;7.00;;;;;26.10;49.02;101363.11;109991;1266;19397;-76
2023/08/17 09:05:24;;;;;;;;;6.00;6.00;;;;;26.11;48.96;101364.09;110005;1259;18608;-76
2023/08/17 09:07:50;;;;;;;;;8.00;8.00;;;;;26.07;49.05;101358.97;110009;1260;19493;-76
2023/08/17 09:10:17;;;;;;;;;11.00;9.00;;;;;26.02;49.13;101356.40;110016;1260;19498;-76
2023/08/17 09:12:44;;;;;;;;;9.50;9.50;;;;;26.02;49.06;101354.97;110073;1260;18497;-76
2023/08/17 09:15:10;;;;;;;;;8.00;7.00;;;;;25.97;49.23;101352.57;110054;1266;19201;-76
2023/08/17 09:17:36;;;;;;;;;9.00;8.00;;;;;25.97;49.27;101351.70;109939;1267;19675;-75
2023/08/17 09:20:03;;;;;;;;;8.67;8.67;;;;;26.01;49.17;101355.48;110012;1266;18635;-76
2023/08/17 09:22:29;;;;;;;;;7.50;7.50;;;;;25.96;49.45;101365.04;110043;1265;18650;-76
2023/08/17 09:24:56;;;;;;;;;7.00;7.00;;;;;25.96;49.44;101364.67;110059;1266;20994;-76
2023/08/17 09:27:22;;;;;;;;;9.00;8.00;;;;;25.95;49.59;101364.56;110096;1265;19660;-76
2023/08/17 09:29:48;;;;;;;;;9.00;8.00;;;;;25.92;49.71;101360.33;110064;1251;20347;-75
2023/08/17 09:32:14;;;;;;;;;8.00;8.00;;;;;25.92;49.67;101361.74;110009;1250;19367;-76
2023/08/17 09:34:40;;;;;;;;;9.00;9.00;;;;;25.94;49.71;101364.90;110029;1250;19393;-76
2023/08/17 09:37:07;;;;;;;;;8.00;8.00;;;;;25.99;49.75;101375.11;110092;1251;20692;-76
2023/08/17 09:39:33;;;;;;;;;7.00;7.00;;;;;25.98;49.82;101375.63;110025;1251;21990;-76
2023/08/17 09:41:59;;;;;;;;;8.00;8.00;;;;;26.01;49.51;101386.02;110057;1266;19636;-76
2023/08/17 09:44:25;;;;;;;;;8.00;7.00;;;;;26.07;49.57;101387.69;110022;1266;21022;-76
2023/08/17 09:46:51;;;;;;;;;7.00;7.00;;;;;26.11;49.55;101374.58;110056;1266;19586;-76
2023/08/17 09:49:17;;;;;;;;;7.67;7.67;;;;;26.07;49.70;101369.02;110019;1260;18347;-76
2023/08/17 09:51:43;;;;;;;;;11.00;10.50;;;;;26.04;49.94;101364.44;110071;1251;20159;-76
2023/08/17 09:54:09;;;;;;;;;7.00;7.00;;;;;26.05;49.74;101361.13;110033;1266;19921;-77
2023/08/17 09:56:37;;;;;;;;;8.00;7.00;;;;;26.20;49.64;101359.21;110028;1265;19053;-76
2023/08/17 09:59:03;;;;;;;;;8.50;7.50;;;;;26.20;49.49;101356.73;110029;1250;21334;-77
2023/08/17 10:01:29;;;;;;;;;9.00;8.00;;;;;26.12;49.78;101355.02;110039;1266;20715;-77
2023/08/17 10:03:55;;;;;;;;;7.33;7.00;;;;;26.21;49.67;101348.94;110019;1260;19507;-77
2023/08/17 10:06:21;;;;;;;;;8.00;8.00;;;;;26.25;49.67;101344.05;109989;1266;22262;-78
2023/08/17 10:08:47;;;;;;;;;11.00;9.00;;;;;26.30;49.69;101342.35;110005;1266;19710;-77
2023/08/17 10:11:13;;;;;;;;;9.00;9.00;;;;;26.25;49.58;101334.48;109995;1265;20017;-77
2023/08/17 10:13:39;;;;;;;;;13.00;12.00;;;;;26.21;49.75;101339.10;110038;1265;18626;-76
2023/08/17 10:16:05;;;;;;;;;10.00;9.00;;;;;26.15;49.72;101338.73;109971;1266;19242;-77
2023/08/17 10:18:31;;;;;;;;;9.00;9.00;;;;;26.17;49.71;101334.37;109987;1250;19979;-77
2023/08/17 10:20:59;;;;;;;;;11.00;11.00;;;;;26.23;49.73;101329.52;109974;1250;20129;-77
2023/08/17 10:23:25;;;;;;;;;11.00;11.00;;;;;26.21;49.80;101324.88;110024;1260;23143;-82
2023/08/17 10:25:51;;;;;;;;;12.00;11.50;;;;;26.30;49.50;101325.48;109959;1250;22834;-78
2023/08/17 10:28:17;;;;;;;;;10.50;10.50;;;;;26.31;49.63;101328.82;109999;1250;18830;-80
2023/08/17 10:30:44;;;;;;;;;11.00;11.00;;;;;26.37;49.75;101329.15;110005;1259;20796;-78
2023/08/17 10:33:10;;;;;;;;;14.00;11.00;;;;;26.33;49.97;101326.02;110000;1266;18604;-79
2023/08/17 10:35:36;;;;;;;;;12.00;11.00;;;;;26.29;49.99;101321.98;110002;1266;19587;-78
2023/08/17 10:38:03;;;;;;;;;13.00;13.00;;;;;26.28;49.82;101323.86;110044;1266;20730;-81
2023/08/17 10:40:30;;;;;;;;;12.00;11.00;;;;;26.43;49.77;101319.23;110079;1265;18632;-77
2023/08/17 10:42:57;;;;;;;;;12.00;12.00;;;;;26.42;49.85;101316.28;110064;1266;22219;-78
2023/08/17 10:45:23;;;;;;;;;13.00;12.00;;;;;26.46;49.79;101315.51;110053;1265;19375;-77
2023/08/17 10:47:50;;;;;;;;;11.00;11.00;;;;;26.45;49.80;101315.14;109985;1265;18760;-78
2023/08/17 10:50:16;;;;;;;;;13.00;13.00;;;;;26.42;49.64;101311.88;110003;1266;22747;-79
2023/08/17 10:52:42;;;;;;;;;13.00;13.00;;;;;26.46;49.88;101310.95;110002;1265;19414;-78
2023/08/17 10:55:10;;;;;;;;;12.50;12.50;;;;;26.46;49.86;101302.33;110041;1266;18605;-77
2023/08/17 10:57:37;;;;;;;;;12.50;12.50;;;;;26.46;49.78;101296.55;110017;1266;18688;-77
2023/08/17 11:00:04;;;;;;;;;12.00;11.50;;;;;26.49;49.72;101299.48;110052;1252;19374;-76
2023/08/17 11:02:31;;;;;;;;;14.00;12.00;;;;;26.42;49.67;101303.98;110035;1265;22370;-69
2023/08/17 11:04:57;;;;;;;;;11.00;11.00;;;;;26.39;49.82;101304.63;110071;1265;21557;-69
2023/08/17 11:07:25;;;;;;;;;12.00;11.00;;;;;26.39;50.13;101303.59;110022;1265;20635;-69
2023/08/17 11:09:51;;;;;;;;;11.50;11.50;;;;;26.37;50.39;101296.85;110043;1265;20223;-75